Time;durP1;ratioP1;P1;durP2;ratioP2;P2;SDS_P1;SDS_P2;PMS_P1;PMS_P2;Temp;Humidity;BMP_temperature;BMP_pressure;BME280_temperature;BME280_humidity;BME280_pressure;Samples;Min_cycle;Max_cycle;Signal;HPM_P1;HPM_P2
2023/06/23 00:00:59;;;;;;;8.45;6.63;;;;;;;26.44;58.08;100198.88;4935676;29;20029;-76
2023/06/23 00:03:25;;;;;;;8.48;6.72;;;;;;;26.43;58.39;100210.53;4936125;29;20024;-79
2023/06/23 00:05:51;;;;;;;8.73;6.57;;;;;;;26.44;58.47;100206.91;4935532;29;20547;-76
2023/06/23 00:08:16;;;;;;;8.70;6.65;;;;;;;26.44;58.46;100202.38;4935656;29;20107;-77
2023/06/23 00:10:43;;;;;;;8.07;6.38;;;;;;;26.41;58.38;100191.91;4935753;29;20024;-77
2023/06/23 00:13:10;;;;;;;8.23;6.50;;;;;;;26.39;58.24;100189.34;4935523;29;20485;-79
2023/06/23 00:15:35;;;;;;;8.32;6.75;;;;;;;26.42;58.33;100187.44;4935486;29;20038;-75
2023/06/23 00:18:01;;;;;;;8.63;6.65;;;;;;;26.41;58.01;100194.59;4935686;29;20028;-75
2023/06/23 00:20:26;;;;;;;8.00;6.38;;;;;;;26.39;58.18;100188.50;4935337;29;20034;-78
2023/06/23 00:22:52;;;;;;;8.70;6.55;;;;;;;26.40;58.21;100192.88;4935702;29;20028;-77
2023/06/23 00:25:18;;;;;;;9.55;6.75;;;;;;;26.37;58.08;100191.28;4935745;29;20083;-76
2023/06/23 00:27:47;;;;;;;7.88;6.80;;;;;;;26.37;58.50;100191.28;4935574;29;20035;-76
2023/06/23 00:30:14;;;;;;;9.13;6.82;;;;;;;26.35;58.15;100187.00;4935414;29;20039;-76
2023/06/23 00:32:40;;;;;;;10.10;6.57;;;;;;;26.33;58.13;100189.78;4935707;29;20031;-76
2023/06/23 00:35:07;;;;;;;9.10;6.70;;;;;;;26.35;58.50;100189.69;4934214;29;20190;-76
2023/06/23 00:37:32;;;;;;;8.40;7.05;;;;;;;26.34;58.55;100185.31;4935484;29;20024;-75
2023/06/23 00:39:58;;;;;;;9.35;6.47;;;;;;;26.35;58.15;100187.00;4935396;29;20404;-77
2023/06/23 00:42:24;;;;;;;9.25;6.72;;;;;;;26.33;58.30;100178.25;4935434;29;20036;-75
2023/06/23 00:44:50;;;;;;;9.13;6.55;;;;;;;26.30;58.19;100184.69;4935230;29;20023;-76
2023/06/23 00:47:16;;;;;;;9.20;6.38;;;;;;;26.31;58.45;100180.16;4935254;29;20028;-79
2023/06/23 00:49:42;;;;;;;7.55;6.18;;;;;;;26.30;58.49;100178.47;4935379;29;20047;-77
2023/06/23 00:52:07;;;;;;;8.98;6.78;;;;;;;26.30;58.34;100178.47;4935173;29;20122;-75
2023/06/23 00:54:35;;;;;;;7.47;6.32;;;;;;;26.29;58.13;100182.09;4935332;29;20036;-77
2023/06/23 00:57:04;;;;;;;8.38;6.95;;;;;;;26.27;58.03;100180.41;4934983;29;20453;-77
2023/06/23 00:59:30;;;;;;;8.20;7.00;;;;;;;26.27;58.17;100180.41;4935102;29;20080;-76
2023/06/23 01:02:01;;;;;;;12.30;7.50;;;;;;;26.27;58.17;100175.06;4934729;29;20472;-75
2023/06/23 01:04:34;;;;;;;8.80;7.07;;;;;;;26.29;58.07;100176.75;4935018;29;20043;-78
2023/06/23 01:07:15;;;;;;;7.43;6.63;;;;;;;26.26;58.04;100173.31;4934842;29;20031;-77
2023/06/23 01:09:53;;;;;;;8.27;6.30;;;;;;;26.29;58.02;100171.41;4934816;29;20038;-77
2023/06/23 01:12:45;;;;;;;8.00;6.80;;;;;;;26.27;58.14;100164.34;4934939;29;20027;-77
2023/06/23 01:15:16;;;;;;;9.30;6.70;;;;;;;26.26;58.18;100162.63;4934889;29;20035;-76
2023/06/23 01:17:53;;;;;;;8.73;6.65;;;;;;;26.25;57.98;100160.91;4934539;29;20031;-76
2023/06/23 01:20:26;;;;;;;8.68;6.82;;;;;;;26.26;58.33;100154.59;4934812;29;20027;-75
2023/06/23 01:23:21;;;;;;;7.60;6.20;;;;;;;26.26;58.16;100151.91;4935022;29;20118;-75
2023/06/23 01:26:12;;;;;;;8.27;6.30;;;;;;;26.26;58.06;100159.09;4934798;29;20440;-77
2023/06/23 01:28:52;;;;;;;7.90;6.32;;;;;;;26.25;58.33;100155.56;4934753;29;20456;-76
2023/06/23 01:31:31;;;;;;;9.23;6.90;;;;;;;26.23;58.12;100160.19;4934772;29;20040;-76
2023/06/23 01:34:04;;;;;;;7.60;6.72;;;;;;;26.22;57.80;100161.13;4934692;29;20499;-77
2023/06/23 01:36:39;;;;;;;8.60;6.95;;;;;;;26.23;57.92;100168.22;4934716;29;20522;-77
2023/06/23 01:39:07;;;;;;;8.88;6.95;;;;;;;26.24;57.99;100163.72;4934387;29;20024;-74
2023/06/23 01:41:40;;;;;;;9.15;6.82;;;;;;;26.23;57.88;100162.00;4934618;29;20023;-77
2023/06/23 01:44:13;;;;;;;8.38;6.50;;;;;;;26.21;58.07;100162.09;4934594;29;20028;-78
2023/06/23 01:46:43;;;;;;;8.75;6.78;;;;;;;26.23;58.08;100165.53;4937272;29;20039;-75
2023/06/23 01:49:15;;;;;;;8.30;6.47;;;;;;;26.21;57.88;100158.56;4938471;29;20038;-75
2023/06/23 01:51:44;;;;;;;9.80;6.63;;;;;;;26.20;57.74;100167.53;4938240;29;20038;-78
2023/06/23 01:54:11;;;;;;;8.02;6.40;;;;;;;26.18;57.80;100159.63;4938243;29;20035;-77
2023/06/23 01:56:40;;;;;;;7.75;6.25;;;;;;;26.15;58.12;100154.50;4938258;29;20043;-75
2023/06/23 01:59:08;;;;;;;9.13;6.70;;;;;;;26.18;57.69;100156.94;4938100;29;20031;-75
2023/06/23 02:01:37;;;;;;;8.32;6.47;;;;;;;26.18;58.09;100158.75;4937830;29;20035;-76
2023/06/23 02:04:04;;;;;;;10.10;6.47;;;;;;;26.18;57.92;100150.72;4938178;29;20042;-76
2023/06/23 02:06:34;;;;;;;10.27;6.93;;;;;;;26.18;58.09;100148.94;4938013;29;20036;-77
2023/06/23 02:09:03;;;;;;;8.63;6.35;;;;;;;26.18;58.05;100153.41;4938137;29;20095;-77
2023/06/23 02:11:32;;;;;;;7.07;5.93;;;;;;;26.17;57.93;100162.41;4937880;29;20502;-77
2023/06/23 02:13:59;;;;;;;7.45;6.43;;;;;;;26.16;58.02;100148.19;4937970;29;20028;-76
2023/06/23 02:16:27;;;;;;;7.25;5.70;;;;;;;26.15;57.96;100149.16;4937398;29;20031;-76
2023/06/23 02:18:55;;;;;;;7.55;6.75;;;;;;;26.15;57.84;100143.81;4937765;29;20119;-77
2023/06/23 02:21:26;;;;;;;9.60;6.50;;;;;;;26.16;57.65;100142.84;4937990;29;20400;-77
2023/06/23 02:23:53;;;;;;;8.80;6.38;;;;;;;26.13;57.95;100148.41;4937850;29;20036;-74
2023/06/23 02:26:21;;;;;;;9.30;7.03;;;;;;;26.14;57.52;100142.94;4937774;29;20079;-75
2023/06/23 02:28:49;;;;;;;8.13;6.38;;;;;;;26.12;57.71;100144.03;4937258;29;20047;-77
2023/06/23 02:31:21;;;;;;;8.63;6.78;;;;;;;26.11;57.65;100147.66;4937789;29;20503;-78
2023/06/23 02:33:47;;;;;;;8.25;6.47;;;;;;;26.11;58.12;100147.66;4937340;29;20024;-76
2023/06/23 02:36:19;;;;;;;9.77;6.82;;;;;;;26.13;57.66;100145.72;4920210;29;20090;-76
2023/06/23 02:38:47;;;;;;;7.93;6.35;;;;;;;26.09;57.66;100150.44;4937546;29;20063;-75
2023/06/23 02:41:14;;;;;;;8.10;6.72;;;;;;;26.11;57.84;100147.66;4937464;29;20031;-78
2023/06/23 02:43:54;;;;;;;8.10;6.15;;;;;;;26.09;57.82;100144.22;4937255;29;20032;-78
2023/06/23 02:46:23;;;;;;;8.65;5.75;;;;;;;26.08;57.70;100153.22;4937393;29;20031;-80
2023/06/23 02:48:51;;;;;;;7.80;6.07;;;;;;;26.08;57.60;100150.56;4935929;29;20126;-77
2023/06/23 02:51:21;;;;;;;7.90;6.70;;;;;;;26.07;57.62;100162.22;4935200;29;20020;-76
2023/06/23 02:54:17;;;;;;;7.78;6.15;;;;;;;26.05;57.68;100164.16;4937251;29;20027;-77
2023/06/23 02:56:44;;;;;;;7.82;6.10;;;;;;;26.02;57.79;100159.88;4935772;29;20731;-79
2023/06/23 02:59:21;;;;;;;8.35;6.05;;;;;;;26.03;57.95;100160.72;4936880;29;20103;-76
2023/06/23 03:01:52;;;;;;;9.18;6.15;;;;;;;26.04;57.99;100165.13;4937212;29;20055;-78
2023/06/23 03:04:18;;;;;;;6.90;5.90;;;;;;;26.03;57.69;100158.03;4936878;29;20032;-77
2023/06/23 03:06:44;;;;;;;8.93;6.60;;;;;;;25.97;58.06;100168.25;4940561;29;20503;-77
2023/06/23 03:09:10;;;;;;;7.40;6.30;;;;;;;26.00;57.98;100173.34;4936927;29;20039;-77
2023/06/23 03:11:36;;;;;;;6.93;6.03;;;;;;;26.01;57.64;100169.72;4937060;29;20381;-77
2023/06/23 03:14:03;;;;;;;7.88;6.00;;;;;;;25.99;57.84;100173.47;4936228;29;20035;-77
2023/06/23 03:16:49;;;;;;;9.25;6.22;;;;;;;25.97;57.70;100172.72;4936699;29;20031;-79
2023/06/23 03:19:37;;;;;;;7.67;6.07;;;;;;;25.98;57.73;100174.44;4936879;29;20381;-75
2023/06/23 03:22:07;;;;;;;8.18;6.28;;;;;;;25.95;57.63;100170.16;4936868;29;20059;-78
2023/06/23 03:24:37;;;;;;;8.38;6.32;;;;;;;25.94;57.69;100176.47;4936796;29;20110;-77
2023/06/23 03:27:06;;;;;;;8.18;5.75;;;;;;;25.95;57.99;100164.81;4936219;29;20357;-77
2023/06/23 03:29:36;;;;;;;7.82;6.47;;;;;;;25.95;57.78;100169.31;4935265;29;20483;-75
2023/06/23 03:32:05;;;;;;;7.55;6.00;;;;;;;25.92;57.97;100170.38;4936838;29;20031;-77
2023/06/23 03:34:39;;;;;;;8.55;6.10;;;;;;;25.92;57.81;100173.06;4936151;29;20035;-77
2023/06/23 03:37:07;;;;;;;7.38;6.07;;;;;;;25.90;58.11;100171.47;4936423;29;20071;-75
2023/06/23 03:39:37;;;;;;;7.45;6.20;;;;;;;25.88;58.15;100174.22;4936323;29;20480;-74
2023/06/23 03:42:04;;;;;;;8.07;6.05;;;;;;;25.91;57.92;100184.69;4936201;29;20119;-76
2023/06/23 03:44:35;;;;;;;8.90;6.03;;;;;;;25.90;57.89;100182.16;4936262;29;20032;-77
2023/06/23 03:47:06;;;;;;;9.57;6.95;;;;;;;25.90;57.79;100191.00;4936021;29;20036;-76
2023/06/23 03:49:37;;;;;;;8.43;5.97;;;;;;;25.89;58.02;100197.31;4934888;29;20027;-75
2023/06/23 03:52:05;;;;;;;8.65;6.65;;;;;;;25.90;57.69;100192.84;4933079;29;20027;-76
2023/06/23 03:54:32;;;;;;;7.90;6.40;;;;;;;25.87;57.77;100193.91;4950668;29;20027;-76
2023/06/23 03:57:01;;;;;;;8.55;6.05;;;;;;;25.85;58.08;100190.47;4935511;29;20087;-76
2023/06/23 03:59:27;;;;;;;10.02;6.75;;;;;;;25.86;58.05;100197.56;4935990;29;20031;-77
2023/06/23 04:01:55;;;;;;;8.60;6.00;;;;;;;25.84;57.68;100194.13;4935887;29;20103;-74
2023/06/23 04:04:24;;;;;;;7.85;6.20;;;;;;;25.82;57.69;100190.72;4935870;29;20038;-76
2023/06/23 04:06:52;;;;;;;7.32;5.60;;;;;;;25.83;57.84;100195.09;4935785;29;20019;-76
2023/06/23 04:09:21;;;;;;;8.27;5.85;;;;;;;25.81;58.04;100194.34;4935743;29;20400;-77
2023/06/23 04:11:50;;;;;;;8.00;6.22;;;;;;;25.80;58.03;100203.34;4935563;29;20078;-75
2023/06/23 04:14:17;;;;;;;7.85;7.00;;;;;;;25.79;57.84;100197.13;4935720;29;20058;-76
2023/06/23 04:16:45;;;;;;;7.93;6.20;;;;;;;25.79;58.13;100198.94;4934319;29;20026;-78
2023/06/23 04:19:13;;;;;;;8.95;6.25;;;;;;;25.76;57.70;100202.66;4935448;29;20134;-77
2023/06/23 04:21:40;;;;;;;8.60;5.72;;;;;;;25.78;57.81;100207.91;4935566;29;20035;-75
2023/06/23 04:24:07;;;;;;;7.97;6.10;;;;;;;25.77;57.98;100207.06;4935616;29;20032;-78
2023/06/23 04:26:34;;;;;;;8.63;5.93;;;;;;;25.73;58.09;100202.91;4935042;29;20086;-77
2023/06/23 04:29:06;;;;;;;7.43;5.38;;;;;;;25.72;58.07;100207.38;4935435;29;20055;-76
2023/06/23 04:31:34;;;;;;;7.93;6.00;;;;;;;25.74;57.82;100202.78;4935630;29;20038;-75
2023/06/23 04:33:59;;;;;;;8.05;5.55;;;;;;;25.76;58.04;100212.53;4935411;29;20031;-75
2023/06/23 04:36:57;;;;;;;8.73;6.25;;;;;;;25.76;58.15;100212.53;4933973;29;20392;-77
2023/06/23 04:39:29;;;;;;;8.50;5.72;;;;;;;25.71;57.87;100216.34;4930231;29;20162;-76
2023/06/23 04:41:59;;;;;;;10.73;5.85;;;;;;;25.72;58.13;100215.41;4935274;29;20024;-76
2023/06/23 04:44:28;;;;;;;8.07;5.93;;;;;;;25.69;58.18;100218.28;4935180;29;20032;-77
2023/06/23 04:46:57;;;;;;;8.55;5.65;;;;;;;25.67;58.18;100222.88;4935088;29;20031;-76
2023/06/23 04:49:27;;;;;;;8.68;5.78;;;;;;;25.68;58.05;100216.59;4934740;29;20464;-76
2023/06/23 04:51:54;;;;;;;7.15;5.63;;;;;;;25.67;58.18;100219.34;4933285;29;20031;-76
2023/06/23 04:54:26;;;;;;;8.25;6.28;;;;;;;25.64;58.02;100222.22;4934823;29;20032;-76
2023/06/23 04:57:01;;;;;;;8.15;6.20;;;;;;;25.62;58.17;100222.34;4934869;29;20495;-77
2023/06/23 04:59:33;;;;;;;8.63;6.38;;;;;;;25.63;57.90;100218.72;4934902;29;20111;-78
2023/06/23 05:02:01;;;;;;;7.80;5.15;;;;;;;25.62;57.82;100219.69;4934950;29;20452;-76
2023/06/23 05:04:28;;;;;;;7.63;6.22;;;;;;;25.61;58.25;100220.63;4934695;29;20028;-75
2023/06/23 05:06:54;;;;;;;6.65;5.40;;;;;;;25.62;58.09;100224.16;4934562;29;20024;-77
2023/06/23 05:09:21;;;;;;;7.97;6.10;;;;;;;25.61;57.95;100223.28;4933217;29;20028;-78
2023/06/23 05:11:50;;;;;;;7.43;5.90;;;;;;;25.61;57.89;100225.97;4951755;29;20075;-77
2023/06/23 05:14:18;;;;;;;7.72;5.80;;;;;;;25.58;58.23;100231.53;4954069;29;20055;-77
2023/06/23 05:16:44;;;;;;;9.40;6.05;;;;;;;25.58;57.99;100231.53;4945522;28;20027;-77
2023/06/23 05:19:12;;;;;;;8.50;5.90;;;;;;;25.59;57.90;100238.59;4934873;29;20663;-77
2023/06/23 05:21:39;;;;;;;8.05;6.25;;;;;;;25.60;58.04;100241.16;4940506;29;20031;-77
2023/06/23 05:24:08;;;;;;;7.15;5.32;;;;;;;25.58;58.01;100242.22;4941089;29;20028;-76
2023/06/23 05:26:35;;;;;;;7.07;6.22;;;;;;;25.57;58.23;100236.00;4941045;29;20024;-77
2023/06/23 05:29:07;;;;;;;8.90;5.57;;;;;;;25.59;58.06;100239.47;4940877;29;20523;-77
2023/06/23 05:31:38;;;;;;;9.35;5.32;;;;;;;25.59;58.21;100236.78;4940929;29;20381;-78
2023/06/23 05:34:07;;;;;;;8.85;6.10;;;;;;;25.61;58.60;100236.66;4940941;29;20106;-76
2023/06/23 05:36:35;;;;;;;8.50;5.75;;;;;;;25.61;58.43;100247.34;4939625;29;20102;-78
2023/06/23 05:39:05;;;;;;;7.85;5.35;;;;;;;25.65;58.34;100242.69;4946851;29;20047;-75
2023/06/23 05:41:31;;;;;;;7.97;5.72;;;;;;;25.66;58.85;100229.19;4950208;29;20034;-78
2023/06/23 05:43:56;;;;;;;12.52;6.10;;;;;;;25.69;59.08;100239.69;4950448;28;20483;-76
2023/06/23 05:46:25;;;;;;;14.13;7.03;;;;;;;25.69;59.20;100245.03;4955845;29;20030;-76
2023/06/23 05:48:53;;;;;;;11.95;6.75;;;;;;;25.69;59.75;100255.72;4944301;28;20031;-74
2023/06/23 05:51:25;;;;;;;13.93;7.57;;;;;;;25.71;59.36;100250.28;4952664;28;20086;-75
2023/06/23 05:53:55;;;;;;;15.40;7.60;;;;;;;25.72;59.38;100239.44;4941488;29;20055;-74
2023/06/23 05:56:29;;;;;;;17.65;8.20;;;;;;;25.72;59.49;100254.66;4951305;28;20051;-75
2023/06/23 05:58:58;;;;;;;11.15;8.07;;;;;;;25.72;59.29;100252.81;4953405;29;20033;-75
2023/06/23 06:01:27;;;;;;;11.30;7.28;;;;;;;25.71;59.13;100243.09;4955840;28;20027;-75
2023/06/23 06:04:07;;;;;;;13.65;8.23;;;;;;;25.73;59.35;100257.19;4955544;28;20047;-73
2023/06/23 06:06:38;;;;;;;12.18;7.32;;;;;;;25.72;59.28;100260.84;4951340;29;20030;-74
2023/06/23 06:09:09;;;;;;;11.38;7.38;;;;;;;25.68;59.39;100262.03;4950357;29;20122;-76
2023/06/23 06:11:37;;;;;;;10.13;7.38;;;;;;;25.69;59.26;100257.50;4950547;29;20039;-74
2023/06/23 06:14:07;;;;;;;13.27;8.30;;;;;;;25.71;58.79;100258.28;4956831;28;20027;-77
2023/06/23 06:16:34;;;;;;;11.02;7.72;;;;;;;25.69;59.07;100255.72;4954269;28;20058;-76
2023/06/23 06:19:01;;;;;;;11.63;7.00;;;;;;;25.69;58.79;100261.06;4936582;29;20027;-75
2023/06/23 06:21:30;;;;;;;11.50;7.55;;;;;;;25.71;59.10;100261.78;4948607;29;20028;-76
2023/06/23 06:23:57;;;;;;;10.52;8.10;;;;;;;25.72;58.74;100260.84;4949355;29;20369;-76
2023/06/23 06:26:25;;;;;;;10.60;7.40;;;;;;;25.71;58.79;100268.97;4947855;29;20047;-75
2023/06/23 06:28:54;;;;;;;11.80;8.18;;;;;;;25.70;58.83;100277.94;4948542;29;20031;-74
2023/06/23 06:31:21;;;;;;;10.70;7.57;;;;;;;25.73;58.55;100277.75;4952092;28;20035;-75
2023/06/23 06:33:49;;;;;;;11.23;7.60;;;;;;;25.71;58.58;100280.50;4947159;29;20038;-74
2023/06/23 06:36:18;;;;;;;9.70;7.25;;;;;;;25.73;58.53;100283.09;4942895;29;20062;-76
2023/06/23 06:38:47;;;;;;;10.77;7.43;;;;;;;25.72;58.73;100286.72;4941897;29;20031;-75
2023/06/23 06:41:13;;;;;;;12.18;8.00;;;;;;;25.70;58.79;100281.47;4940152;29;20551;-75
2023/06/23 06:43:39;;;;;;;14.38;7.82;;;;;;;25.69;58.86;100282.44;4943983;29;20050;-78
2023/06/23 06:46:06;;;;;;;11.85;7.47;;;;;;;25.69;58.80;100287.78;4943151;29;20114;-77
2023/06/23 06:48:34;;;;;;;11.23;7.55;;;;;;;25.72;58.64;100290.22;4936681;29;20034;-77
2023/06/23 06:51:00;;;;;;;16.60;8.02;;;;;;;25.73;58.76;100288.44;4936061;29;20020;-77
2023/06/23 06:53:27;;;;;;;11.65;7.60;;;;;;;25.70;58.69;100293.97;4941297;29;20059;-74
2023/06/23 06:55:54;;;;;;;12.68;7.53;;;;;;;25.69;58.72;100298.47;4938246;29;20396;-74
2023/06/23 06:58:20;;;;;;;12.35;8.20;;;;;;;25.70;59.03;100300.19;4936002;29;20485;-76
2023/06/23 07:00:45;;;;;;;12.93;7.38;;;;;;;25.69;58.76;100293.13;4937262;29;20030;-77
2023/06/23 07:03:12;;;;;;;9.68;7.07;;;;;;;25.75;58.58;100297.19;4937319;29;20059;-74
2023/06/23 07:05:38;;;;;;;11.15;7.97;;;;;;;25.73;58.70;100299.97;4936644;29;20028;-76
2023/06/23 07:08:05;;;;;;;13.35;7.85;;;;;;;25.73;58.66;100294.63;4937054;29;20736;-76
2023/06/23 07:10:32;;;;;;;11.32;8.15;;;;;;;25.73;58.89;100293.78;4937118;29;20030;-76
2023/06/23 07:12:58;;;;;;;10.40;6.95;;;;;;;25.71;58.84;100291.19;4936950;29;20051;-76
2023/06/23 07:15:23;;;;;;;15.48;8.55;;;;;;;25.73;58.95;100289.25;4936916;29;20488;-74
2023/06/23 07:17:49;;;;;;;11.52;7.65;;;;;;;25.74;58.92;100299.03;4936739;29;20492;-76
2023/06/23 07:20:15;;;;;;;12.65;7.90;;;;;;;25.72;58.87;100292.91;4936570;29;20369;-76
2023/06/23 07:22:40;;;;;;;11.35;7.85;;;;;;;25.75;58.75;100302.53;4936714;29;20035;-76
2023/06/23 07:25:06;;;;;;;10.35;6.75;;;;;;;25.74;58.70;100301.69;4940297;29;20090;-75
2023/06/23 07:27:31;;;;;;;9.90;7.18;;;;;;;25.74;58.46;100301.69;4953440;29;20074;-76
2023/06/23 07:29:58;;;;;;;11.02;7.05;;;;;;;25.73;58.48;100294.63;4936430;29;20047;-75
2023/06/23 07:32:24;;;;;;;10.43;7.45;;;;;;;25.76;58.70;100292.72;4942795;29;20033;-74
2023/06/23 07:34:49;;;;;;;11.40;7.53;;;;;;;25.74;58.81;100296.34;4934608;29;20035;-75
2023/06/23 07:37:15;;;;;;;12.30;7.72;;;;;;;25.77;58.26;100302.44;4935698;29;20027;-75
2023/06/23 07:39:40;;;;;;;9.90;6.82;;;;;;;25.76;58.68;100298.06;4936060;29;20071;-76
2023/06/23 07:42:06;;;;;;;10.60;7.43;;;;;;;25.78;58.35;100296.13;4951913;29;20035;-75
2023/06/23 07:44:31;;;;;;;10.95;7.95;;;;;;;25.77;58.74;100297.09;4951193;28;20492;-76
2023/06/23 07:47:00;;;;;;;10.50;7.82;;;;;;;25.77;58.39;100297.09;4936153;29;20047;-74
2023/06/23 07:49:26;;;;;;;10.55;7.93;;;;;;;25.77;58.32;100302.44;4935433;29;20039;-76
2023/06/23 07:51:52;;;;;;;8.52;7.03;;;;;;;25.78;58.39;100301.47;4935984;29;20515;-75
2023/06/23 07:54:17;;;;;;;10.25;7.05;;;;;;;25.79;58.42;100297.84;4935889;29;20047;-75
2023/06/23 07:56:42;;;;;;;10.75;7.68;;;;;;;25.80;58.49;100299.56;4936184;29;20035;-74
2023/06/23 07:59:08;;;;;;;10.07;7.63;;;;;;;25.81;58.11;100295.94;4935820;29;20039;-75
2023/06/23 08:01:33;;;;;;;8.57;7.18;;;;;;;25.81;58.33;100301.28;4935974;29;20070;-76
2023/06/23 08:03:59;;;;;;;10.48;7.65;;;;;;;25.81;58.17;100293.25;4935534;29;20492;-75
2023/06/23 08:06:24;;;;;;;9.15;7.07;;;;;;;25.83;58.28;100294.00;4935812;29;20118;-75
2023/06/23 08:08:51;;;;;;;9.73;7.10;;;;;;;25.82;58.19;100293.13;4935968;29;20413;-75
2023/06/23 08:11:16;;;;;;;10.73;7.25;;;;;;;25.83;58.02;100299.34;4935684;29;20023;-75
2023/06/23 08:13:42;;;;;;;9.10;7.32;;;;;;;25.83;58.26;100299.34;4935783;29;20078;-75
2023/06/23 08:16:07;;;;;;;9.45;7.55;;;;;;;25.83;57.99;100300.22;4935355;29;20052;-75
2023/06/23 08:18:32;;;;;;;8.77;7.53;;;;;;;25.82;57.77;100297.63;4935313;29;20035;-77
2023/06/23 08:20:58;;;;;;;8.18;7.15;;;;;;;25.83;58.19;100292.19;4935562;29;20052;-76
2023/06/23 08:23:23;;;;;;;9.63;7.13;;;;;;;25.84;58.00;100295.69;4934228;29;20512;-75
2023/06/23 08:25:49;;;;;;;8.85;7.20;;;;;;;25.82;58.21;100287.78;4935522;29;20070;-76
2023/06/23 08:28:14;;;;;;;9.63;7.13;;;;;;;25.83;58.15;100285.97;4935372;29;20058;-76
2023/06/23 08:30:40;;;;;;;8.57;7.47;;;;;;;25.83;57.76;100289.50;4935451;29;20425;-76
2023/06/23 08:33:05;;;;;;;7.82;6.32;;;;;;;25.86;57.70;100285.78;4935023;29;20035;-76
2023/06/23 08:35:31;;;;;;;9.15;7.00;;;;;;;25.86;57.64;100291.13;4935137;29;20476;-77
2023/06/23 08:37:57;;;;;;;8.73;6.30;;;;;;;25.88;57.59;100286.53;4935456;29;20032;-76
2023/06/23 08:40:22;;;;;;;9.15;6.90;;;;;;;25.87;57.60;100280.31;4935335;29;20444;-75
2023/06/23 08:42:48;;;;;;;7.85;6.40;;;;;;;25.87;57.92;100282.13;4935409;29;20027;-73
2023/06/23 08:45:18;;;;;;;8.73;6.43;;;;;;;25.86;58.04;100280.44;4934987;29;20027;-75
2023/06/23 08:47:48;;;;;;;8.13;6.40;;;;;;;25.86;57.80;100285.78;4934784;29;20020;-76
2023/06/23 08:50:14;;;;;;;8.38;6.43;;;;;;;25.87;58.10;100290.16;4935143;29;20035;-76
2023/06/23 08:52:41;;;;;;;8.85;6.60;;;;;;;25.87;57.87;100291.00;4935085;29;20436;-73
2023/06/23 08:55:08;;;;;;;8.07;7.00;;;;;;;25.87;58.00;100292.84;4934407;29;20035;-77
2023/06/23 08:57:34;;;;;;;7.22;6.22;;;;;;;25.86;57.47;100288.44;4934925;29;20023;-75
2023/06/23 09:00:00;;;;;;;8.18;6.10;;;;;;;25.87;57.55;100295.50;4935327;29;20047;-75
2023/06/23 09:02:25;;;;;;;7.43;6.25;;;;;;;25.87;57.50;100304.34;4934757;29;20060;-75
2023/06/23 09:04:51;;;;;;;7.78;6.15;;;;;;;25.87;57.88;100298.19;4934978;29;20078;-77
2023/06/23 09:07:16;;;;;;;7.80;6.57;;;;;;;25.87;57.58;100299.00;4935041;29;20050;-75
2023/06/23 09:09:47;;;;;;;7.28;6.03;;;;;;;25.90;57.39;100300.63;4934663;29;20484;-75
2023/06/23 09:12:16;;;;;;;7.93;6.55;;;;;;;25.88;57.74;100297.22;4935671;29;20043;-75
2023/06/23 09:14:43;;;;;;;6.80;5.72;;;;;;;25.91;57.49;100302.31;4935259;29;20043;-76
2023/06/23 09:17:10;;;;;;;8.80;6.70;;;;;;;25.91;57.37;100293.47;4934104;29;20063;-75
2023/06/23 09:19:38;;;;;;;7.57;6.60;;;;;;;25.91;57.60;100299.66;4935412;29;20023;-76
2023/06/23 09:22:06;;;;;;;8.95;6.70;;;;;;;25.91;57.67;100302.31;4935282;29;20028;-73
2023/06/23 09:24:45;;;;;;;8.05;6.53;;;;;;;25.90;57.75;100303.28;4934947;29;20493;-75
2023/06/23 09:27:11;;;;;;;7.95;6.65;;;;;;;25.91;57.43;100302.31;4935364;29;20152;-76
2023/06/23 09:29:39;;;;;;;7.72;6.35;;;;;;;25.87;57.65;100301.69;4930046;29;20135;-76
2023/06/23 09:32:06;;;;;;;7.70;6.20;;;;;;;25.85;57.60;100302.75;4921843;29;20024;-76
2023/06/23 09:34:37;;;;;;;8.75;6.72;;;;;;;25.84;57.65;100303.72;4918910;29;20035;-73
2023/06/23 09:37:13;;;;;;;8.45;6.70;;;;;;;25.88;57.59;100297.22;4915879;29;20087;-76
2023/06/23 09:39:40;;;;;;;7.68;6.60;;;;;;;25.87;57.34;100295.50;4915752;29;20168;-75
2023/06/23 09:42:13;;;;;;;8.45;6.88;;;;;;;25.86;57.53;100294.63;4916566;29;20024;-75
2023/06/23 09:44:41;;;;;;;8.60;6.30;;;;;;;25.87;57.78;100296.34;4915513;29;20441;-76
2023/06/23 09:47:07;;;;;;;8.85;6.70;;;;;;;25.88;57.81;100291.88;4915927;29;20083;-74
2023/06/23 09:49:39;;;;;;;8.10;6.35;;;;;;;25.89;57.32;100288.22;4915536;29;20032;-76
2023/06/23 09:52:06;;;;;;;9.43;7.00;;;;;;;25.91;57.53;100288.97;4915753;29;20078;-75
2023/06/23 09:54:39;;;;;;;10.88;6.63;;;;;;;25.92;57.57;100288.03;4915015;29;20028;-74
2023/06/23 09:57:12;;;;;;;9.63;6.82;;;;;;;25.92;57.23;100285.34;4915409;29;20481;-77
2023/06/23 09:59:39;;;;;;;8.80;6.38;;;;;;;25.93;57.57;100278.16;4915319;29;20388;-75
2023/06/23 10:02:07;;;;;;;9.43;6.72;;;;;;;25.93;57.07;100289.72;4915470;29;20024;-74
2023/06/23 10:04:32;;;;;;;8.82;6.63;;;;;;;25.92;57.48;100285.34;4915558;29;20088;-76
2023/06/23 10:06:58;;;;;;;7.97;6.07;;;;;;;25.92;57.14;100282.69;4917089;29;20012;-75
2023/06/23 10:09:25;;;;;;;8.65;6.68;;;;;;;25.92;57.42;100276.47;4918926;29;20032;-76
2023/06/23 10:11:51;;;;;;;11.27;6.45;;;;;;;25.92;57.38;100273.78;4918844;29;20024;-76
2023/06/23 10:14:18;;;;;;;9.15;6.30;;;;;;;25.92;57.25;100277.34;4918409;29;20496;-75
2023/06/23 10:16:44;;;;;;;9.07;6.75;;;;;;;25.93;57.52;100278.16;4919290;29;20552;-74
2023/06/23 10:19:14;;;;;;;8.65;6.35;;;;;;;25.93;57.36;100268.34;4918693;29;20028;-75
2023/06/23 10:21:41;;;;;;;8.85;6.22;;;;;;;25.93;57.59;100273.69;4918380;29;20028;-74
2023/06/23 10:24:10;;;;;;;8.02;6.50;;;;;;;25.94;57.71;100270.03;4921257;29;20047;-76
2023/06/23 10:26:37;;;;;;;9.73;6.50;;;;;;;25.96;57.34;100268.13;4918514;29;20063;-75
2023/06/23 10:29:11;;;;;;;9.68;6.68;;;;;;;25.98;57.29;100268.88;4921364;29;20403;-74
2023/06/23 10:31:37;;;;;;;8.27;6.70;;;;;;;26.02;57.44;100266.84;4922298;29;20066;-75
2023/06/23 10:34:05;;;;;;;8.73;6.70;;;;;;;26.04;57.31;100264.06;4943089;29;20028;-74
2023/06/23 10:36:32;;;;;;;9.55;6.40;;;;;;;26.03;57.44;100273.03;4937419;29;20387;-74
2023/06/23 10:39:01;;;;;;;8.27;7.00;;;;;;;26.03;57.44;100263.19;4937115;29;20111;-75
2023/06/23 10:41:27;;;;;;;9.70;6.93;;;;;;;26.06;57.53;100262.13;4936968;29;20024;-77
2023/06/23 10:43:56;;;;;;;7.47;6.30;;;;;;;26.08;57.32;100266.41;4936922;29;20051;-74
2023/06/23 10:46:22;;;;;;;7.05;6.10;;;;;;;26.09;57.49;100272.59;4937153;29;20043;-74
2023/06/23 10:48:49;;;;;;;8.32;6.57;;;;;;;26.10;57.55;100269.00;4937446;29;20036;-75
2023/06/23 10:51:14;;;;;;;9.10;6.65;;;;;;;26.09;57.35;100267.25;4937129;29;20032;-74
2023/06/23 10:53:45;;;;;;;8.82;6.35;;;;;;;26.12;57.50;100267.06;4937121;29;20034;-75
2023/06/23 10:56:29;;;;;;;8.00;6.15;;;;;;;26.14;57.30;100270.47;4936761;29;20567;-75
2023/06/23 10:58:55;;;;;;;8.45;6.10;;;;;;;26.14;57.38;100263.31;4936955;29;20059;-76
2023/06/23 11:01:20;;;;;;;8.10;6.60;;;;;;;26.16;57.02;100262.34;4937250;29;20023;-74
2023/06/23 11:03:51;;;;;;;7.20;6.13;;;;;;;26.16;57.05;100263.19;4937029;29;20110;-74
2023/06/23 11:06:26;;;;;;;8.20;6.53;;;;;;;26.19;57.46;100267.47;4936874;29;20042;-73
2023/06/23 11:08:52;;;;;;;7.55;5.85;;;;;;;26.19;57.01;100260.28;4936883;29;20027;-76
2023/06/23 11:11:30;;;;;;;8.63;6.70;;;;;;;26.20;56.94;100270.03;4936551;29;20400;-75
2023/06/23 11:13:56;;;;;;;8.80;6.75;;;;;;;26.21;57.07;100265.53;4936926;29;20070;-75
2023/06/23 11:16:38;;;;;;;8.93;6.40;;;;;;;26.23;57.27;100267.19;4935379;29;20476;-75
2023/06/23 11:19:04;;;;;;;8.02;6.28;;;;;;;26.23;57.09;100267.19;4936147;29;20055;-75
2023/06/23 11:21:37;;;;;;;9.68;6.72;;;;;;;26.23;56.91;100259.16;4936677;29;20103;-76
2023/06/23 11:24:10;;;;;;;8.80;6.20;;;;;;;26.26;57.03;100258.09;4936463;29;20028;-77
2023/06/23 11:26:36;;;;;;;7.43;5.88;;;;;;;26.27;56.93;100260.66;4936233;29;20059;-76
2023/06/23 11:29:08;;;;;;;7.75;6.30;;;;;;;26.29;56.88;100257.00;4936429;29;20044;-75
2023/06/23 11:31:33;;;;;;;7.70;6.45;;;;;;;26.29;56.82;100252.50;4934972;29;20067;-76